createdAt,value
2022-12-13T00:04:27.064Z,91.21
2022-12-13T00:09:29.404Z,91.64
2022-12-13T00:14:32.911Z,91.52
2022-12-13T00:19:34.983Z,91.49
2022-12-13T00:24:41.415Z,91.89
2022-12-13T00:29:48.552Z,91.83
2022-12-13T00:34:50.460Z,92.35
2022-12-13T00:39:52.248Z,92.01
2022-12-13T00:44:55.682Z,91.77
2022-12-13T00:49:58.759Z,91.36
2022-12-13T00:55:00.838Z,92.26
2022-12-13T01:00:05.885Z,91.91
2022-12-13T01:05:08.907Z,92.11
2022-12-13T01:10:12.506Z,91.70
2022-12-13T01:15:16.288Z,92.02
2022-12-13T01:20:18.804Z,92.01
2022-12-13T01:25:21.583Z,91.98
2022-12-13T01:30:25.875Z,91.95
2022-12-13T01:35:27.915Z,92.39
2022-12-13T01:40:29.594Z,92.20
2022-12-13T01:45:34.038Z,91.96
2022-12-13T01:50:39.457Z,92.00
2022-12-13T01:55:45.438Z,91.94
2022-12-13T02:00:49.819Z,91.68
2022-12-13T02:06:00.367Z,92.36
2022-12-13T02:11:03.595Z,92.62
2022-12-13T02:16:12.932Z,92.75
2022-12-13T02:21:34.876Z,92.07
2022-12-13T02:27:00.782Z,91.79
2022-12-13T02:32:13.255Z,91.93
2022-12-13T02:37:22.952Z,92.05
2022-12-13T02:42:29.973Z,91.76
2022-12-13T02:47:35.938Z,92.01
2022-12-13T02:52:40.613Z,92.10
2022-12-13T02:57:44.696Z,91.95
2022-12-13T03:03:02.292Z,91.87
2022-12-13T03:08:19.370Z,91.52
2022-12-13T03:13:29.163Z,90.41
2022-12-13T03:18:34.542Z,90.73
2022-12-13T03:23:37.507Z,90.50
2022-12-13T03:28:40.685Z,90.82
2022-12-13T03:33:44.524Z,90.43
2022-12-13T03:38:48.040Z,90.39
2022-12-13T03:43:50.588Z,90.63
2022-12-13T03:48:54.008Z,90.23
2022-12-13T03:53:58.077Z,90.29
2022-12-13T03:59:00.174Z,89.96
2022-12-13T04:04:03.682Z,89.42
2022-12-13T04:09:05.960Z,89.45
2022-12-13T04:14:07.838Z,89.15
2022-12-13T04:19:11.364Z,89.06
2022-12-13T04:24:13.351Z,88.99
2022-12-13T04:29:15.584Z,88.44
2022-12-13T04:34:19.192Z,88.89
2022-12-13T04:39:22.607Z,88.65
2022-12-13T04:44:27.619Z,89.22
2022-12-13T04:49:33.755Z,89.14
2022-12-13T04:54:37.111Z,89.61
2022-12-13T04:59:39.785Z,89.07
2022-12-13T05:04:44.632Z,88.98
2022-12-13T05:09:46.802Z,88.88
2022-12-13T05:14:49.049Z,88.64
2022-12-13T05:19:52.587Z,88.74
2022-12-13T05:24:54.747Z,88.76
2022-12-13T05:30:03.051Z,88.58
2022-12-13T05:35:08.378Z,89.23
2022-12-13T05:40:10.625Z,89.30
2022-12-13T05:45:13.161Z,89.38
2022-12-13T05:50:17.865Z,89.65
2022-12-13T05:55:20.430Z,89.34
2022-12-13T06:00:28.300Z,89.16
2022-12-13T06:05:34.221Z,89.22
2022-12-13T06:10:36.768Z,89.79
2022-12-13T06:15:44.477Z,89.48
2022-12-13T06:20:56.288Z,89.21
2022-12-13T06:25:58.706Z,89.01
2022-12-13T06:31:01.495Z,89.27
2022-12-13T06:36:05.409Z,89.27
2022-12-13T06:41:10.054Z,89.46
2022-12-13T06:46:13.036Z,89.40
2022-12-13T06:51:22.556Z,89.27
2022-12-13T06:56:25.270Z,89.49
2022-12-13T07:01:27.533Z,89.40
2022-12-13T07:06:41.144Z,89.06
2022-12-13T07:11:47.081Z,88.88
2022-12-13T07:17:01.163Z,88.66
2022-12-13T07:22:06.993Z,88.35
2022-12-13T07:27:09.094Z,88.13
2022-12-13T07:32:12.167Z,88.13
2022-12-13T07:37:30.113Z,88.06
2022-12-13T07:42:33.088Z,87.69
2022-12-13T07:47:35.394Z,87.33
2022-12-13T07:52:39.084Z,87.61
2022-12-13T07:57:40.868Z,86.90
2022-12-13T08:02:43.023Z,86.60
2022-12-13T08:07:46.400Z,86.69
2022-12-13T08:12:48.587Z,86.67
2022-12-13T08:17:50.992Z,86.28
2022-12-13T08:23:01.822Z,85.66
2022-12-13T08:28:05.203Z,85.95
2022-12-13T08:33:07.721Z,85.53
2022-12-13T08:38:11.696Z,85.04
2022-12-13T08:43:13.914Z,85.00
2022-12-13T08:48:16.041Z,84.72
2022-12-13T08:53:28.215Z,84.55
2022-12-13T08:58:32.366Z,83.15
2022-12-13T09:03:34.996Z,83.78
2022-12-13T09:08:39.403Z,82.23
2022-12-13T09:13:43.797Z,82.16
2022-12-13T09:18:55.191Z,81.84
2022-12-13T09:24:01.350Z,81.60
2022-12-13T09:29:11.214Z,81.42
2022-12-13T09:34:14.010Z,81.76
2022-12-13T09:39:17.889Z,80.38
2022-12-13T09:44:32.584Z,79.44
2022-12-13T09:49:52.343Z,77.91
2022-12-13T09:54:59.275Z,78.53
2022-12-13T10:00:06.318Z,78.10
2022-12-13T10:05:22.296Z,77.88
2022-12-13T10:10:27.762Z,77.94
2022-12-13T10:15:33.482Z,78.45
2022-12-13T10:20:36.477Z,77.49
2022-12-13T10:25:51.068Z,77.96
2022-12-13T10:30:54.192Z,76.73
2022-12-13T10:36:05.973Z,76.45
2022-12-13T10:41:31.429Z,76.18
2022-12-13T10:46:38.719Z,76.61
2022-12-13T10:51:41.116Z,75.88
2022-12-13T10:56:47.252Z,74.87
2022-12-13T11:01:49.040Z,73.87
2022-12-13T11:06:54.147Z,74.43
2022-12-13T11:12:01.115Z,73.19
2022-12-13T11:17:09.493Z,73.98
2022-12-13T11:22:21.125Z,73.18
2022-12-13T11:27:44.169Z,74.28
2022-12-13T11:32:59.892Z,73.78
2022-12-13T11:38:11.389Z,74.28
2022-12-13T11:43:26.497Z,73.17
2022-12-13T11:48:41.122Z,72.59
2022-12-13T11:53:52.820Z,72.12
2022-12-13T11:59:11.311Z,72.07
2022-12-13T12:04:29.972Z,72.54
2022-12-13T12:09:35.058Z,72.28
2022-12-13T12:14:43.498Z,72.66
2022-12-13T12:19:51.303Z,71.91
2022-12-13T12:25:03.505Z,71.67
2022-12-13T12:30:23.798Z,73.35
2022-12-13T12:35:46.383Z,73.04
2022-12-13T12:41:17.507Z,72.76
2022-12-13T12:47:09.150Z,73.10
2022-12-13T12:52:14.486Z,73.50
2022-12-13T12:57:24.786Z,73.67
2022-12-13T13:02:36.811Z,73.81
2022-12-13T13:07:43.560Z,73.27
2022-12-13T13:13:11.473Z,73.06
2022-12-13T13:18:49.194Z,73.20
2022-12-13T13:24:06.557Z,73.19
2022-12-13T13:29:37.507Z,71.94
2022-12-13T13:34:42.932Z,72.31
2022-12-13T13:39:59.681Z,71.88
2022-12-13T13:45:20.921Z,71.31
2022-12-13T13:50:53.298Z,71.89
2022-12-13T13:56:02.000Z,73.12
2022-12-13T14:01:48.871Z,73.02
2022-12-13T14:07:26.445Z,73.67
2022-12-13T14:13:14.505Z,73.22
2022-12-13T14:18:51.779Z,74.21
2022-12-13T14:24:12.124Z,73.09
2022-12-13T14:29:16.895Z,72.56
2022-12-13T14:34:22.808Z,73.55
2022-12-13T14:39:26.640Z,74.11
2022-12-13T14:44:30.209Z,75.52
2022-12-13T14:49:35.260Z,76.40
2022-12-13T14:54:45.593Z,76.86
2022-12-13T14:59:50.603Z,78.61
2022-12-13T15:04:53.992Z,79.51
2022-12-13T15:10:00.667Z,80.96
2022-12-13T15:15:06.042Z,82.27
2022-12-13T15:20:23.362Z,82.49
2022-12-13T15:25:27.784Z,83.38
2022-12-13T15:30:34.022Z,83.96
2022-12-13T15:35:36.832Z,84.76
2022-12-13T15:40:44.045Z,85.24
2022-12-13T15:45:48.001Z,85.64
2022-12-13T15:50:50.355Z,86.12
2022-12-13T15:55:53.924Z,87.32
2022-12-13T16:00:56.148Z,87.17
2022-12-13T16:05:58.314Z,88.33
2022-12-13T16:11:02.307Z,88.13
2022-12-13T16:16:26.675Z,88.72
2022-12-13T16:21:29.979Z,88.71
2022-12-13T16:26:34.634Z,89.10
2022-12-13T16:31:37.220Z,90.30
2022-12-13T16:36:40.115Z,90.44
2022-12-13T16:41:47.009Z,90.85
2022-12-13T16:47:11.503Z,91.63
2022-12-13T16:52:11.433Z,91.84
2022-12-13T16:57:14.606Z,91.54
2022-12-13T17:02:17.758Z,91.77
2022-12-13T17:07:19.737Z,91.91
2022-12-13T17:12:24.574Z,92.11
2022-12-13T17:17:26.698Z,92.56
2022-12-13T17:22:28.503Z,93.84
2022-12-13T17:27:31.828Z,93.71
2022-12-13T17:32:33.881Z,93.91
2022-12-13T17:37:35.943Z,94.60
2022-12-13T17:42:39.044Z,93.78
2022-12-13T17:47:40.794Z,93.17
2022-12-13T17:52:42.648Z,94.10
2022-12-13T17:57:46.201Z,94.65
2022-12-13T18:02:55.119Z,94.28
2022-12-13T18:07:58.005Z,94.71
2022-12-13T18:13:01.187Z,94.34
2022-12-13T18:18:11.376Z,94.32
2022-12-13T18:23:14.679Z,93.69
2022-12-13T18:28:18.215Z,94.79
2022-12-13T18:33:20.892Z,94.54
2022-12-13T18:38:23.391Z,94.61
2022-12-13T18:43:27.088Z,94.96
2022-12-13T18:48:29.380Z,95.02
2022-12-13T18:53:32.288Z,95.52
2022-12-13T18:58:36.226Z,95.07
2022-12-13T19:03:39.109Z,95.18
2022-12-13T19:08:40.925Z,94.95
2022-12-13T19:13:45.081Z,95.03
2022-12-13T19:18:47.835Z,95.36
2022-12-13T19:23:56.923Z,95.23
2022-12-13T19:29:02.079Z,95.00
2022-12-13T19:34:04.437Z,95.17
2022-12-13T19:39:06.675Z,95.65
2022-12-13T19:44:11.353Z,94.99
2022-12-13T19:49:13.896Z,95.16
2022-12-13T19:54:16.165Z,95.14
2022-12-13T19:59:19.959Z,95.29
2022-12-13T20:04:23.454Z,95.01
2022-12-13T20:09:26.006Z,95.39
2022-12-13T20:14:30.018Z,95.79
2022-12-13T20:19:32.257Z,95.95
2022-12-13T20:24:34.689Z,96.24
2022-12-13T20:29:38.483Z,95.65
2022-12-13T20:34:40.891Z,96.30
2022-12-13T20:39:43.193Z,95.60
2022-12-13T20:44:46.525Z,96.10
2022-12-13T20:49:48.942Z,96.75
2022-12-13T20:54:51.408Z,96.47
2022-12-13T20:59:54.671Z,96.92
2022-12-13T21:04:57.878Z,96.01
2022-12-13T21:10:03.689Z,96.45
2022-12-13T21:15:08.415Z,95.73
2022-12-13T21:20:10.440Z,96.32
2022-12-13T21:25:12.464Z,96.45
2022-12-13T21:30:15.680Z,95.57
2022-12-13T21:35:17.696Z,96.80
2022-12-13T21:40:19.882Z,96.18
2022-12-13T21:45:23.699Z,95.96
2022-12-13T21:50:25.532Z,95.81
2022-12-13T21:55:38.933Z,96.17
2022-12-13T22:00:43.111Z,96.75
2022-12-13T22:05:45.284Z,95.85
2022-12-13T22:10:46.993Z,96.23
2022-12-13T22:15:51.149Z,95.90
2022-12-13T22:20:56.475Z,96.36
2022-12-13T22:25:58.577Z,95.35
2022-12-13T22:31:02.280Z,95.71
2022-12-13T22:36:04.734Z,95.16
2022-12-13T22:41:06.978Z,95.48
2022-12-13T22:46:12.847Z,95.10
2022-12-13T22:51:17.081Z,94.99
2022-12-13T22:56:21.317Z,95.24
2022-12-13T23:01:28.900Z,95.07
2022-12-13T23:06:34.137Z,95.01
2022-12-13T23:11:36.532Z,94.48
2022-12-13T23:16:40.634Z,94.84
2022-12-13T23:21:43.306Z,95.23
2022-12-13T23:26:50.730Z,94.11
2022-12-13T23:31:54.252Z,94.79
2022-12-13T23:36:56.548Z,94.06
2022-12-13T23:41:58.618Z,94.04
2022-12-13T23:47:02.080Z,93.71
2022-12-13T23:52:04.384Z,93.36
2022-12-13T23:57:06.380Z,93.76
